createdAt,value
2024-01-25T00:02:16.946Z,101576.20
2024-01-25T00:04:45.354Z,101569.50
2024-01-25T00:07:13.928Z,101568.64
2024-01-25T00:09:42.263Z,101564.33
2024-01-25T00:12:10.642Z,101565.80
2024-01-25T00:14:38.835Z,101565.96
2024-01-25T00:17:07.179Z,101561.00
2024-01-25T00:19:36.501Z,101548.86
2024-01-25T00:22:05.277Z,101545.67
2024-01-25T00:24:34.600Z,101547.63
2024-01-25T00:27:04.090Z,101547.23
2024-01-25T00:29:32.499Z,101549.85
2024-01-25T00:32:00.717Z,101552.14
2024-01-25T00:34:29.613Z,101553.35
2024-01-25T00:36:58.407Z,101546.50
2024-01-25T00:39:27.332Z,101534.65
2024-01-25T00:42:04.343Z,101531.45
2024-01-25T00:44:33.358Z,101526.50
2024-01-25T00:47:01.788Z,101528.56
2024-01-25T00:49:30.718Z,101532.87
2024-01-25T00:52:03.928Z,101520.29
2024-01-25T00:54:32.734Z,101512.77
2024-01-25T00:57:01.490Z,101513.49
2024-01-25T00:59:30.109Z,101513.20
2024-01-25T01:02:01.889Z,101511.60
2024-01-25T01:04:31.669Z,101511.20
2024-01-25T01:07:15.805Z,101510.17
2024-01-25T01:09:44.253Z,101504.98
2024-01-25T01:12:12.683Z,101500.41
2024-01-25T01:14:40.904Z,101499.06
2024-01-25T01:17:09.130Z,101494.82
2024-01-25T01:19:37.415Z,101486.11
2024-01-25T01:22:05.813Z,101483.42
2024-01-25T01:24:34.134Z,101484.58
2024-01-25T01:27:02.447Z,101481.09
2024-01-25T01:29:30.833Z,101476.92
2024-01-25T01:31:59.356Z,101480.55
2024-01-25T01:34:28.003Z,101471.59
2024-01-25T01:36:56.551Z,101461.68
2024-01-25T01:39:24.913Z,101452.41
2024-01-25T01:41:53.031Z,101447.91
2024-01-25T01:44:22.058Z,101449.63
2024-01-25T01:46:50.281Z,101445.90
2024-01-25T01:49:19.320Z,101443.48
2024-01-25T01:51:48.330Z,101435.60
2024-01-25T01:54:16.940Z,101433.21
2024-01-25T01:56:46.729Z,101430.31
2024-01-25T01:59:16.601Z,101427.69
2024-01-25T02:01:45.003Z,101422.88
2024-01-25T02:04:13.624Z,101420.65
2024-01-25T02:06:43.876Z,101408.83
2024-01-25T02:09:12.283Z,101405.11
2024-01-25T02:11:40.608Z,101402.93
2024-01-25T02:14:12.233Z,101402.83
2024-01-25T02:16:40.727Z,101407.20
2024-01-25T02:19:09.356Z,101408.90
2024-01-25T02:21:37.800Z,101401.26
2024-01-25T02:24:07.073Z,101397.14
2024-01-25T02:26:36.444Z,101393.75
2024-01-25T02:29:06.376Z,101386.64
2024-01-25T02:31:34.596Z,101384.36
2024-01-25T02:34:02.967Z,101392.08
2024-01-25T02:36:31.375Z,101396.75
2024-01-25T02:38:59.655Z,101396.59
2024-01-25T02:41:31.337Z,101399.69
2024-01-25T02:43:59.703Z,101399.10
2024-01-25T02:46:28.065Z,101396.46
2024-01-25T02:48:56.464Z,101393.40
2024-01-25T02:51:24.871Z,101384.22
2024-01-25T02:53:53.095Z,101379.52
2024-01-25T02:56:21.314Z,101379.60
2024-01-25T02:58:49.640Z,101373.70
2024-01-25T03:01:17.954Z,101377.59
2024-01-25T03:03:46.400Z,101370.48
2024-01-25T03:06:14.692Z,101368.27
2024-01-25T03:08:43.009Z,101364.06
2024-01-25T03:11:11.228Z,101360.02
2024-01-25T03:13:39.649Z,101351.67
2024-01-25T03:16:07.989Z,101341.45
2024-01-25T03:18:36.393Z,101337.19
2024-01-25T03:21:04.809Z,101340.10
2024-01-25T03:23:33.034Z,101336.45
2024-01-25T03:26:03.834Z,101340.41
2024-01-25T03:28:33.131Z,101341.29
2024-01-25T03:31:01.731Z,101349.13
2024-01-25T03:33:30.657Z,101348.87
2024-01-25T03:35:59.260Z,101339.17
2024-01-25T03:38:27.472Z,101331.34
2024-01-25T03:40:57.697Z,101323.85
2024-01-25T03:43:27.613Z,101317.04
2024-01-25T03:46:02.016Z,101322.70
2024-01-25T03:48:30.435Z,101332.92
2024-01-25T03:50:58.807Z,101330.05
2024-01-25T03:53:27.029Z,101333.98
2024-01-25T03:55:55.548Z,101342.55
2024-01-25T03:58:23.882Z,101327.98
2024-01-25T04:00:52.281Z,101320.62
2024-01-25T04:03:20.850Z,101320.11
2024-01-25T04:05:50.036Z,101331.58
2024-01-25T04:08:19.066Z,101333.86
2024-01-25T04:10:47.282Z,101342.20
2024-01-25T04:13:15.530Z,101339.20
2024-01-25T04:15:43.859Z,101336.72
2024-01-25T04:18:12.231Z,101337.87
2024-01-25T04:20:41.563Z,101335.77
2024-01-25T04:23:09.887Z,101327.16
2024-01-25T04:25:38.157Z,101323.02
2024-01-25T04:28:06.852Z,101323.48
2024-01-25T04:30:35.245Z,101325.02
2024-01-25T04:33:04.249Z,101330.10
2024-01-25T04:35:33.401Z,101328.56
2024-01-25T04:38:01.916Z,101329.23
2024-01-25T04:40:30.302Z,101337.70
2024-01-25T04:42:58.684Z,101342.23
2024-01-25T04:45:26.878Z,101335.61
2024-01-25T04:47:55.173Z,101331.82
2024-01-25T04:50:23.807Z,101335.17
2024-01-25T04:52:52.247Z,101339.06
2024-01-25T04:55:21.601Z,101339.17
2024-01-25T04:57:54.642Z,101337.36
2024-01-25T05:00:23.964Z,101332.85
2024-01-25T05:02:52.247Z,101338.94
2024-01-25T05:05:20.535Z,101334.42
2024-01-25T05:07:49.063Z,101330.92
2024-01-25T05:10:17.556Z,101329.09
2024-01-25T05:12:45.875Z,101326.25
2024-01-25T05:15:14.251Z,101328.14
2024-01-25T05:17:42.503Z,101335.00
2024-01-25T05:20:11.732Z,101350.63
2024-01-25T05:22:42.214Z,101357.22
2024-01-25T05:25:11.269Z,101353.40
2024-01-25T05:27:39.741Z,101341.67
2024-01-25T05:30:08.869Z,101337.98
2024-01-25T05:32:37.715Z,101336.06
2024-01-25T05:35:07.145Z,101340.33
2024-01-25T05:37:35.472Z,101347.98
2024-01-25T05:40:04.227Z,101346.20
2024-01-25T05:42:33.611Z,101341.30
2024-01-25T05:45:02.225Z,101338.53
2024-01-25T05:47:31.517Z,101361.81
2024-01-25T05:49:59.935Z,101363.66
2024-01-25T05:52:28.873Z,101382.28
2024-01-25T05:54:57.168Z,101367.67
2024-01-25T05:57:25.432Z,101369.98
2024-01-25T05:59:53.548Z,101367.70
2024-01-25T06:02:21.822Z,101364.64
2024-01-25T06:04:50.449Z,101364.00
2024-01-25T06:07:19.252Z,101358.41
2024-01-25T06:09:47.921Z,101352.70
2024-01-25T06:12:16.190Z,101344.55
2024-01-25T06:14:44.380Z,101342.28
2024-01-25T06:17:13.214Z,101332.27
2024-01-25T06:19:41.697Z,101333.15
2024-01-25T06:22:10.264Z,101335.23
2024-01-25T06:24:39.110Z,101330.05
2024-01-25T06:27:07.383Z,101342.80
2024-01-25T06:29:35.604Z,101333.19
2024-01-25T06:32:10.560Z,101331.55
2024-01-25T06:34:39.575Z,101328.09
2024-01-25T06:37:08.067Z,101336.34
2024-01-25T06:39:36.448Z,101346.30
2024-01-25T06:42:05.303Z,101352.94
2024-01-25T06:44:33.566Z,101352.20
2024-01-25T06:47:01.777Z,101347.78
2024-01-25T06:49:30.165Z,101351.66
2024-01-25T06:51:58.543Z,101358.81
2024-01-25T06:54:26.852Z,101359.45
2024-01-25T06:56:57.674Z,101350.88
2024-01-25T06:59:26.099Z,101337.69
2024-01-25T07:01:55.527Z,101331.22
2024-01-25T07:04:24.343Z,101331.73
2024-01-25T07:06:53.420Z,101339.42
2024-01-25T07:09:21.880Z,101362.23
2024-01-25T07:11:50.105Z,101372.56
2024-01-25T07:14:18.523Z,101379.21
2024-01-25T07:16:46.749Z,101388.01
2024-01-25T07:19:15.701Z,101395.34
2024-01-25T07:21:47.257Z,101399.34
2024-01-25T07:24:15.716Z,101406.86
2024-01-25T07:26:43.942Z,101404.95
2024-01-25T07:29:12.261Z,101399.55
2024-01-25T07:31:40.480Z,101402.27
2024-01-25T07:34:08.772Z,101392.86
2024-01-25T07:36:37.174Z,101390.63
2024-01-25T07:39:05.944Z,101397.46
2024-01-25T07:41:35.419Z,101400.20
2024-01-25T07:44:04.500Z,101396.64
2024-01-25T07:46:33.325Z,101397.05
2024-01-25T07:49:01.750Z,101396.09
2024-01-25T07:51:30.408Z,101404.13
2024-01-25T07:53:58.724Z,101401.13
2024-01-25T07:56:26.998Z,101396.61
2024-01-25T07:58:55.214Z,101399.73
2024-01-25T08:01:23.562Z,101390.13
2024-01-25T08:03:52.134Z,101378.69
2024-01-25T08:06:20.618Z,101368.88
2024-01-25T08:08:48.901Z,101371.67
2024-01-25T08:11:20.033Z,101385.44
2024-01-25T08:13:51.722Z,101392.03
2024-01-25T08:16:23.428Z,101385.70
2024-01-25T08:18:51.953Z,101382.13
2024-01-25T08:21:20.469Z,101389.73
2024-01-25T08:23:48.957Z,101388.80
2024-01-25T08:26:17.584Z,101389.46
2024-01-25T08:28:45.923Z,101393.96
2024-01-25T08:31:14.411Z,101391.11
2024-01-25T08:33:49.300Z,101391.81
2024-01-25T08:36:21.099Z,101389.77
2024-01-25T08:38:49.525Z,101392.15
2024-01-25T08:41:17.978Z,101393.17
2024-01-25T08:43:46.372Z,101390.83
2024-01-25T08:46:17.091Z,101385.45
2024-01-25T08:48:45.758Z,101384.21
2024-01-25T08:51:14.345Z,101388.79
2024-01-25T08:53:42.554Z,101382.80
2024-01-25T08:56:11.224Z,101374.69
2024-01-25T08:58:39.592Z,101368.83
2024-01-25T09:01:07.992Z,101369.06
2024-01-25T09:03:36.494Z,101364.77
2024-01-25T09:06:07.795Z,101363.89
2024-01-25T09:08:36.337Z,101364.48
2024-01-25T09:11:05.226Z,101355.80
2024-01-25T09:13:34.065Z,101350.70
2024-01-25T09:16:13.562Z,101351.31
2024-01-25T09:18:42.091Z,101336.49
2024-01-25T09:21:10.440Z,101322.73
2024-01-25T09:23:38.661Z,101315.22
2024-01-25T09:26:06.889Z,101307.02
2024-01-25T09:28:35.291Z,101308.54
2024-01-25T09:31:04.487Z,101316.39
2024-01-25T09:33:35.573Z,101306.02
2024-01-25T09:36:04.764Z,101305.94
2024-01-25T09:38:33.563Z,101308.40
2024-01-25T09:41:02.581Z,101308.43
2024-01-25T09:43:32.193Z,101311.55
2024-01-25T09:46:02.062Z,101326.76
2024-01-25T09:48:30.863Z,101331.15
2024-01-25T09:51:00.699Z,101333.92
2024-01-25T09:53:35.089Z,101319.61
2024-01-25T09:56:14.607Z,101318.09
2024-01-25T09:58:45.664Z,101309.70
2024-01-25T10:01:16.711Z,101309.80
2024-01-25T10:03:49.169Z,101313.17
2024-01-25T10:06:18.701Z,101312.55
2024-01-25T10:08:47.869Z,101304.93
2024-01-25T10:11:17.082Z,101306.91
2024-01-25T10:13:46.902Z,101309.48
2024-01-25T10:16:16.704Z,101307.47
2024-01-25T10:18:48.319Z,101312.77
2024-01-25T10:21:18.841Z,101310.00
2024-01-25T10:23:52.960Z,101303.98
2024-01-25T10:26:21.565Z,101293.39
2024-01-25T10:28:58.051Z,101290.19
2024-01-25T10:31:31.029Z,101294.84
2024-01-25T10:34:01.833Z,101295.87
2024-01-25T10:36:32.509Z,101293.49
2024-01-25T10:39:06.173Z,101292.77
2024-01-25T10:41:36.266Z,101292.05
2024-01-25T10:44:07.993Z,101293.43
2024-01-25T10:46:38.632Z,101297.51
2024-01-25T10:49:09.205Z,101296.52
2024-01-25T10:51:38.100Z,101295.61
2024-01-25T10:54:08.400Z,101296.45
2024-01-25T10:56:38.281Z,101290.08
2024-01-25T10:59:07.665Z,101286.97
2024-01-25T11:01:36.936Z,101284.36
2024-01-25T11:04:14.537Z,101286.65
2024-01-25T11:06:44.330Z,101276.55
2024-01-25T11:09:19.355Z,101268.61
2024-01-25T11:11:55.457Z,101276.08
2024-01-25T11:14:26.695Z,101276.48
2024-01-25T11:16:55.616Z,101271.49
2024-01-25T11:19:24.324Z,101265.30
2024-01-25T11:21:54.467Z,101256.87
2024-01-25T11:24:25.536Z,101248.55
2024-01-25T11:26:55.926Z,101237.86
2024-01-25T11:29:25.653Z,101238.02
2024-01-25T11:31:54.688Z,101239.95
2024-01-25T11:34:24.715Z,101239.48
2024-01-25T11:36:53.176Z,101242.38
2024-01-25T11:39:21.460Z,101239.44
2024-01-25T11:41:53.035Z,101247.62
2024-01-25T11:44:24.107Z,101262.06
2024-01-25T11:46:55.759Z,101272.77
2024-01-25T11:49:26.336Z,101256.89
2024-01-25T11:51:55.598Z,101255.62
2024-01-25T11:54:24.122Z,101257.23
2024-01-25T11:56:52.754Z,101268.27
2024-01-25T11:59:21.253Z,101262.23
2024-01-25T12:01:50.117Z,101270.09
2024-01-25T12:04:19.993Z,101270.34
2024-01-25T12:06:49.544Z,101267.86
2024-01-25T12:09:17.943Z,101266.52
2024-01-25T12:11:52.062Z,101267.83
2024-01-25T12:14:20.800Z,101263.98
2024-01-25T12:16:49.101Z,101253.60
2024-01-25T12:19:17.792Z,101252.91
2024-01-25T12:21:46.162Z,101241.69
2024-01-25T12:24:14.582Z,101239.43
2024-01-25T12:26:43.507Z,101234.55
2024-01-25T12:29:12.228Z,101233.60
2024-01-25T12:31:40.628Z,101228.23
2024-01-25T12:34:17.938Z,101230.77
2024-01-25T12:36:46.626Z,101232.03
2024-01-25T12:39:18.288Z,101227.90
2024-01-25T12:41:48.852Z,101229.24
2024-01-25T12:44:17.607Z,101231.27
2024-01-25T12:46:45.926Z,101240.45
2024-01-25T12:49:14.450Z,101236.48
2024-01-25T12:51:43.147Z,101249.61
2024-01-25T12:54:11.712Z,101253.67
2024-01-25T12:56:40.233Z,101253.59
2024-01-25T12:59:10.262Z,101247.39
2024-01-25T13:01:38.795Z,101252.63
2024-01-25T13:04:07.535Z,101252.86
2024-01-25T13:06:36.215Z,101253.29
2024-01-25T13:09:05.129Z,101248.45
2024-01-25T13:11:33.452Z,101252.14
2024-01-25T13:14:01.886Z,101249.78
2024-01-25T13:16:30.092Z,101243.95
2024-01-25T13:18:58.628Z,101250.20
2024-01-25T13:21:26.872Z,101251.77
2024-01-25T13:23:55.265Z,101253.06
2024-01-25T13:26:23.673Z,101255.46
2024-01-25T13:28:52.202Z,101246.87
2024-01-25T13:31:20.759Z,101243.86
2024-01-25T13:33:49.357Z,101249.81
2024-01-25T13:36:17.909Z,101254.13
2024-01-25T13:38:46.193Z,101251.58
2024-01-25T13:41:14.502Z,101249.74
2024-01-25T13:43:42.735Z,101251.29
2024-01-25T13:46:10.940Z,101251.80
2024-01-25T13:48:39.312Z,101248.86
2024-01-25T13:51:07.584Z,101247.50
2024-01-25T13:53:37.110Z,101246.04
2024-01-25T13:56:05.925Z,101236.59
2024-01-25T13:58:34.451Z,101235.36
2024-01-25T14:01:02.848Z,101232.97
2024-01-25T14:03:32.583Z,101231.66
2024-01-25T14:06:05.468Z,101233.16
2024-01-25T14:08:33.965Z,101234.54
2024-01-25T14:11:03.277Z,101228.84
2024-01-25T14:13:31.703Z,101224.35
2024-01-25T14:16:03.131Z,101223.70
2024-01-25T14:18:38.294Z,101215.80
2024-01-25T14:21:07.467Z,101219.79
2024-01-25T14:23:38.644Z,101221.41
2024-01-25T14:26:07.352Z,101227.46
2024-01-25T14:28:35.875Z,101229.80
2024-01-25T14:31:04.544Z,101227.23
2024-01-25T14:33:33.418Z,101221.80
2024-01-25T14:36:02.055Z,101217.65
2024-01-25T14:38:30.288Z,101213.34
2024-01-25T14:41:01.542Z,101213.93
2024-01-25T14:43:31.071Z,101214.19
2024-01-25T14:45:59.441Z,101213.88
2024-01-25T14:48:27.896Z,101212.98
2024-01-25T14:50:56.189Z,101219.71
2024-01-25T14:53:24.616Z,101222.59
2024-01-25T14:55:52.838Z,101225.20
2024-01-25T14:58:24.046Z,101223.90
2024-01-25T15:00:53.742Z,101223.68
2024-01-25T15:03:22.437Z,101217.79
2024-01-25T15:05:51.689Z,101215.73
2024-01-25T15:08:20.794Z,101225.35
2024-01-25T15:10:49.688Z,101221.58
2024-01-25T15:13:17.909Z,101222.77
2024-01-25T15:15:46.160Z,101220.65
2024-01-25T15:18:14.637Z,101219.51
2024-01-25T15:20:42.980Z,101229.84
2024-01-25T15:23:11.292Z,101229.34
2024-01-25T15:25:40.125Z,101235.29
2024-01-25T15:28:08.336Z,101232.16
2024-01-25T15:30:36.735Z,101229.29
2024-01-25T15:33:07.238Z,101238.42
2024-01-25T15:35:35.603Z,101239.13
2024-01-25T15:38:07.032Z,101237.14
2024-01-25T15:40:36.157Z,101240.42
2024-01-25T15:43:04.996Z,101233.30
2024-01-25T15:45:33.396Z,101237.58
2024-01-25T15:48:01.824Z,101239.75
2024-01-25T15:50:30.239Z,101246.23
2024-01-25T15:52:58.457Z,101247.78
2024-01-25T15:55:26.661Z,101250.64
2024-01-25T15:57:54.933Z,101256.95
2024-01-25T16:00:23.418Z,101263.46
2024-01-25T16:02:53.259Z,101268.36
2024-01-25T16:05:21.864Z,101260.10
2024-01-25T16:07:50.566Z,101254.91
2024-01-25T16:10:19.634Z,101260.44
2024-01-25T16:12:48.185Z,101259.38
2024-01-25T16:15:18.762Z,101261.42
2024-01-25T16:17:47.665Z,101253.45
2024-01-25T16:20:18.131Z,101251.02
2024-01-25T16:22:46.623Z,101252.56
2024-01-25T16:25:15.049Z,101249.52
2024-01-25T16:27:43.955Z,101248.41
2024-01-25T16:30:13.178Z,101242.65
2024-01-25T16:32:41.594Z,101245.17
2024-01-25T16:35:10.194Z,101239.02
2024-01-25T16:37:38.452Z,101251.23
2024-01-25T16:40:08.064Z,101266.56
2024-01-25T16:42:36.300Z,101267.20
2024-01-25T16:45:05.210Z,101274.84
2024-01-25T16:47:33.489Z,101268.98
2024-01-25T16:50:01.864Z,101273.41
2024-01-25T16:52:30.202Z,101262.14
2024-01-25T16:54:58.633Z,101257.38
2024-01-25T16:57:27.161Z,101262.63
2024-01-25T16:59:55.733Z,101258.95
2024-01-25T17:02:23.956Z,101261.60
2024-01-25T17:04:52.782Z,101270.70
2024-01-25T17:07:21.465Z,101271.40
2024-01-25T17:09:50.022Z,101275.64
2024-01-25T17:12:18.869Z,101282.77
2024-01-25T17:14:47.170Z,101279.41
2024-01-25T17:17:15.385Z,101280.20
2024-01-25T17:19:44.191Z,101276.58
2024-01-25T17:22:12.449Z,101275.70
2024-01-25T17:24:40.674Z,101270.05
2024-01-25T17:27:09.580Z,101273.67
2024-01-25T17:29:37.895Z,101266.84
2024-01-25T17:32:06.828Z,101269.05
2024-01-25T17:34:35.659Z,101263.00
2024-01-25T17:37:04.164Z,101271.17
2024-01-25T17:39:32.412Z,101269.31
2024-01-25T17:42:01.310Z,101271.75
2024-01-25T17:44:29.542Z,101274.71
2024-01-25T17:46:57.938Z,101273.73
2024-01-25T17:49:26.586Z,101276.27
2024-01-25T17:51:54.969Z,101277.09
2024-01-25T17:54:23.550Z,101277.80
2024-01-25T17:56:51.944Z,101283.20
2024-01-25T17:59:22.293Z,101285.79
2024-01-25T18:01:51.349Z,101290.84
2024-01-25T18:04:20.207Z,101293.77
2024-01-25T18:06:48.457Z,101292.95
2024-01-25T18:09:16.784Z,101290.61
2024-01-25T18:11:46.569Z,101285.30
2024-01-25T18:14:14.795Z,101292.77
2024-01-25T18:16:43.025Z,101289.57
2024-01-25T18:19:11.597Z,101292.10
2024-01-25T18:21:45.498Z,101296.48
2024-01-25T18:24:15.338Z,101297.17
2024-01-25T18:26:45.628Z,101292.70
2024-01-25T18:29:16.130Z,101290.73
2024-01-25T18:31:44.284Z,101294.73
2024-01-25T18:34:12.550Z,101300.71
2024-01-25T18:36:41.171Z,101305.33
2024-01-25T18:39:09.442Z,101302.81
2024-01-25T18:41:37.967Z,101311.33
2024-01-25T18:44:06.191Z,101317.04
2024-01-25T18:46:36.170Z,101314.63
2024-01-25T18:49:04.721Z,101321.05
2024-01-25T18:51:33.103Z,101326.94
2024-01-25T18:54:01.885Z,101329.90
2024-01-25T18:56:30.501Z,101327.05
2024-01-25T18:58:59.245Z,101316.11
2024-01-25T19:01:27.951Z,101312.62
2024-01-25T19:03:56.721Z,101307.41
2024-01-25T19:06:34.137Z,101306.30
2024-01-25T19:09:03.768Z,101311.37
2024-01-25T19:11:32.805Z,101310.61
2024-01-25T19:14:02.448Z,101309.50
2024-01-25T19:16:30.701Z,101315.50
2024-01-25T19:18:59.050Z,101310.50
2024-01-25T19:21:27.432Z,101309.75
2024-01-25T19:23:55.665Z,101307.23
2024-01-25T19:26:23.893Z,101301.73
2024-01-25T19:28:52.112Z,101302.35
2024-01-25T19:31:20.425Z,101300.61
2024-01-25T19:33:48.870Z,101297.63
2024-01-25T19:36:17.592Z,101295.41
2024-01-25T19:38:45.886Z,101287.42
2024-01-25T19:41:14.710Z,101288.56
2024-01-25T19:43:43.938Z,101286.23
2024-01-25T19:46:12.287Z,101283.08
2024-01-25T19:48:40.642Z,101278.64
2024-01-25T19:51:09.406Z,101278.41
2024-01-25T19:53:37.618Z,101280.95
2024-01-25T19:56:06.843Z,101279.03
2024-01-25T19:58:35.510Z,101286.45
2024-01-25T20:01:05.067Z,101283.71
2024-01-25T20:03:33.779Z,101286.16
2024-01-25T20:06:02.364Z,101278.20
2024-01-25T20:08:31.052Z,101278.65
2024-01-25T20:10:59.176Z,101276.98
2024-01-25T20:13:29.499Z,101274.64
2024-01-25T20:15:57.832Z,101279.30
2024-01-25T20:18:26.714Z,101280.33
2024-01-25T20:20:55.820Z,101278.16
2024-01-25T20:23:25.197Z,101277.10
2024-01-25T20:25:53.717Z,101286.09
2024-01-25T20:28:22.877Z,101285.66
2024-01-25T20:30:51.682Z,101281.65
2024-01-25T20:33:20.419Z,101283.58
2024-01-25T20:35:49.014Z,101279.89
2024-01-25T20:38:17.226Z,101285.73
2024-01-25T20:40:45.547Z,101283.08
2024-01-25T20:43:13.983Z,101284.65
2024-01-25T20:45:42.310Z,101284.56
2024-01-25T20:48:10.815Z,101285.02
2024-01-25T20:50:39.811Z,101279.27
2024-01-25T20:53:08.422Z,101277.82
2024-01-25T20:55:39.167Z,101278.83
2024-01-25T20:58:07.499Z,101281.89
2024-01-25T21:00:35.914Z,101282.80
2024-01-25T21:03:05.057Z,101275.16
2024-01-25T21:05:33.824Z,101278.02
2024-01-25T21:08:02.607Z,101279.96
2024-01-25T21:10:31.285Z,101274.52
2024-01-25T21:13:00.081Z,101269.67
2024-01-25T21:15:29.047Z,101269.92
2024-01-25T21:17:57.260Z,101268.27
2024-01-25T21:20:25.615Z,101270.30
2024-01-25T21:22:53.918Z,101272.48
2024-01-25T21:25:22.239Z,101276.21
2024-01-25T21:27:50.581Z,101276.35
2024-01-25T21:30:18.980Z,101272.88
2024-01-25T21:32:47.430Z,101272.73
2024-01-25T21:35:16.177Z,101275.65
2024-01-25T21:37:44.347Z,101274.13
2024-01-25T21:40:12.790Z,101277.37
2024-01-25T21:42:41.136Z,101282.09
2024-01-25T21:45:12.061Z,101282.48
2024-01-25T21:47:43.122Z,101285.31
2024-01-25T21:50:12.246Z,101281.95
2024-01-25T21:52:41.700Z,101282.46
2024-01-25T21:55:12.658Z,101286.85
2024-01-25T21:57:48.896Z,101290.66
2024-01-25T22:00:18.302Z,101294.29
2024-01-25T22:02:48.297Z,101298.60
2024-01-25T22:05:20.695Z,101298.31
2024-01-25T22:07:49.571Z,101300.46
2024-01-25T22:10:17.898Z,101298.30
2024-01-25T22:12:46.267Z,101294.94
2024-01-25T22:15:14.542Z,101297.13
2024-01-25T22:17:42.992Z,101294.83
2024-01-25T22:20:12.229Z,101294.19
2024-01-25T22:22:41.112Z,101292.56
2024-01-25T22:25:10.288Z,101294.38
2024-01-25T22:27:39.204Z,101297.86
2024-01-25T22:30:08.178Z,101302.71
2024-01-25T22:32:36.493Z,101300.84
2024-01-25T22:35:05.413Z,101300.41
2024-01-25T22:37:33.740Z,101300.45
2024-01-25T22:40:01.999Z,101295.61
2024-01-25T22:42:30.412Z,101293.46
2024-01-25T22:44:58.717Z,101288.12
2024-01-25T22:47:26.936Z,101287.23
2024-01-25T22:49:55.139Z,101292.27
2024-01-25T22:52:24.573Z,101289.94
2024-01-25T22:54:53.150Z,101290.57
2024-01-25T22:57:21.642Z,101290.63
2024-01-25T22:59:50.939Z,101292.98
2024-01-25T23:02:22.541Z,101293.93
2024-01-25T23:04:51.182Z,101296.34
2024-01-25T23:07:19.606Z,101302.27
2024-01-25T23:09:48.331Z,101305.20
2024-01-25T23:12:16.896Z,101306.25
2024-01-25T23:14:45.396Z,101306.23
2024-01-25T23:17:15.134Z,101312.64
2024-01-25T23:19:43.445Z,101315.05
2024-01-25T23:22:11.840Z,101318.05
2024-01-25T23:24:40.217Z,101320.74
2024-01-25T23:27:08.497Z,101316.47
2024-01-25T23:29:36.703Z,101317.09
2024-01-25T23:32:05.724Z,101316.02
2024-01-25T23:34:33.952Z,101323.63
2024-01-25T23:37:02.369Z,101326.85
2024-01-25T23:39:31.021Z,101329.16
2024-01-25T23:41:59.308Z,101339.10
2024-01-25T23:44:27.728Z,101336.75
2024-01-25T23:46:56.246Z,101332.96
2024-01-25T23:49:24.573Z,101337.22
2024-01-25T23:51:54.610Z,101345.54
2024-01-25T23:54:23.538Z,101345.75
2024-01-25T23:56:52.442Z,101341.52
2024-01-25T23:59:20.761Z,101345.40
